sensor_id;sensor_type;location;lat;lon;timestamp;P1;durP1;ratioP1;P2;durP2;ratioP2
57643;SDS011;43474;46.510;6.686;2024-01-15T00:01:21;5.80;;;3.72;;
57643;SDS011;43474;46.510;6.686;2024-01-15T00:03:47;7.80;;;3.70;;
57643;SDS011;43474;46.510;6.686;2024-01-15T00:06:12;8.15;;;5.07;;
57643;SDS011;43474;46.510;6.686;2024-01-15T00:08:38;7.32;;;4.05;;
57643;SDS011;43474;46.510;6.686;2024-01-15T00:11:04;10.02;;;4.00;;
57643;SDS011;43474;46.510;6.686;2024-01-15T00:13:30;11.55;;;3.75;;
57643;SDS011;43474;46.510;6.686;2024-01-15T00:15:55;8.75;;;4.35;;
57643;SDS011;43474;46.510;6.686;2024-01-15T00:18:21;9.25;;;3.55;;
57643;SDS011;43474;46.510;6.686;2024-01-15T00:20:47;7.47;;;3.92;;
57643;SDS011;43474;46.510;6.686;2024-01-15T00:23:13;9.68;;;4.05;;
57643;SDS011;43474;46.510;6.686;2024-01-15T00:25:38;7.70;;;3.90;;
57643;SDS011;43474;46.510;6.686;2024-01-15T00:28:04;5.75;;;3.42;;
57643;SDS011;43474;46.510;6.686;2024-01-15T00:30:30;6.50;;;3.78;;
57643;SDS011;43474;46.510;6.686;2024-01-15T00:32:56;10.35;;;3.67;;
57643;SDS011;43474;46.510;6.686;2024-01-15T00:35:21;9.43;;;3.92;;
57643;SDS011;43474;46.510;6.686;2024-01-15T00:37:47;5.88;;;2.65;;
57643;SDS011;43474;46.510;6.686;2024-01-15T00:40:13;7.07;;;3.47;;
57643;SDS011;43474;46.510;6.686;2024-01-15T00:42:38;7.43;;;3.20;;
57643;SDS011;43474;46.510;6.686;2024-01-15T00:45:04;11.40;;;3.58;;
57643;SDS011;43474;46.510;6.686;2024-01-15T00:47:33;3.17;;;1.60;;
57643;SDS011;43474;46.510;6.686;2024-01-15T00:50:00;4.63;;;2.92;;
57643;SDS011;43474;46.510;6.686;2024-01-15T00:52:26;5.32;;;2.28;;
57643;SDS011;43474;46.510;6.686;2024-01-15T00:54:51;5.57;;;3.22;;
57643;SDS011;43474;46.510;6.686;2024-01-15T00:57:17;4.57;;;1.70;;
57643;SDS011;43474;46.510;6.686;2024-01-15T00:59:44;3.95;;;1.98;;
57643;SDS011;43474;46.510;6.686;2024-01-15T01:02:10;4.00;;;2.00;;
57643;SDS011;43474;46.510;6.686;2024-01-15T01:04:36;4.07;;;1.77;;
57643;SDS011;43474;46.510;6.686;2024-01-15T01:07:02;2.67;;;1.65;;
57643;SDS011;43474;46.510;6.686;2024-01-15T01:09:27;5.85;;;1.60;;
57643;SDS011;43474;46.510;6.686;2024-01-15T01:11:56;1.52;;;1.33;;
57643;SDS011;43474;46.510;6.686;2024-01-15T01:14:21;2.38;;;1.90;;
57643;SDS011;43474;46.510;6.686;2024-01-15T01:16:48;4.32;;;1.65;;
57643;SDS011;43474;46.510;6.686;2024-01-15T01:19:14;6.38;;;2.83;;
57643;SDS011;43474;46.510;6.686;2024-01-15T01:21:40;3.38;;;2.00;;
57643;SDS011;43474;46.510;6.686;2024-01-15T01:24:06;4.95;;;2.30;;
57643;SDS011;43474;46.510;6.686;2024-01-15T01:26:32;4.25;;;2.88;;
57643;SDS011;43474;46.510;6.686;2024-01-15T01:28:57;3.25;;;2.30;;
57643;SDS011;43474;46.510;6.686;2024-01-15T01:31:24;5.55;;;2.60;;
57643;SDS011;43474;46.510;6.686;2024-01-15T01:33:50;8.23;;;4.13;;
57643;SDS011;43474;46.510;6.686;2024-01-15T01:36:16;13.35;;;5.80;;
57643;SDS011;43474;46.510;6.686;2024-01-15T01:38:41;14.98;;;7.85;;
57643;SDS011;43474;46.510;6.686;2024-01-15T01:41:07;16.80;;;6.93;;
57643;SDS011;43474;46.510;6.686;2024-01-15T01:43:33;16.55;;;7.07;;
57643;SDS011;43474;46.510;6.686;2024-01-15T01:46:00;8.48;;;5.07;;
57643;SDS011;43474;46.510;6.686;2024-01-15T01:48:26;15.45;;;6.80;;
57643;SDS011;43474;46.510;6.686;2024-01-15T01:50:53;17.58;;;6.40;;
57643;SDS011;43474;46.510;6.686;2024-01-15T01:53:22;9.93;;;5.90;;
57643;SDS011;43474;46.510;6.686;2024-01-15T01:55:48;12.07;;;5.70;;
57643;SDS011;43474;46.510;6.686;2024-01-15T01:58:16;8.70;;;4.72;;
57643;SDS011;43474;46.510;6.686;2024-01-15T02:00:43;12.38;;;5.50;;
57643;SDS011;43474;46.510;6.686;2024-01-15T02:03:08;5.05;;;2.42;;
57643;SDS011;43474;46.510;6.686;2024-01-15T02:05:35;0.50;;;0.50;;
57643;SDS011;43474;46.510;6.686;2024-01-15T02:08:02;0.95;;;0.70;;
57643;SDS011;43474;46.510;6.686;2024-01-15T02:10:28;2.63;;;0.77;;
57643;SDS011;43474;46.510;6.686;2024-01-15T02:12:54;0.10;;;0.10;;
57643;SDS011;43474;46.510;6.686;2024-01-15T02:15:20;0.32;;;0.32;;
57643;SDS011;43474;46.510;6.686;2024-01-15T02:18:04;0.25;;;0.22;;
57643;SDS011;43474;46.510;6.686;2024-01-15T02:20:34;0.30;;;0.30;;
57643;SDS011;43474;46.510;6.686;2024-01-15T02:23:03;0.85;;;0.68;;
57643;SDS011;43474;46.510;6.686;2024-01-15T02:25:29;0.28;;;0.28;;
57643;SDS011;43474;46.510;6.686;2024-01-15T02:27:55;0.75;;;0.75;;
57643;SDS011;43474;46.510;6.686;2024-01-15T02:30:21;5.35;;;0.50;;
57643;SDS011;43474;46.510;6.686;2024-01-15T02:32:48;0.38;;;0.38;;
57643;SDS011;43474;46.510;6.686;2024-01-15T02:35:15;0.60;;;0.45;;
57643;SDS011;43474;46.510;6.686;2024-01-15T02:37:41;2.08;;;0.63;;
57643;SDS011;43474;46.510;6.686;2024-01-15T02:40:07;1.25;;;0.60;;
57643;SDS011;43474;46.510;6.686;2024-01-15T02:42:33;0.57;;;0.35;;
57643;SDS011;43474;46.510;6.686;2024-01-15T02:45:00;1.02;;;0.70;;
57643;SDS011;43474;46.510;6.686;2024-01-15T02:47:26;0.52;;;0.20;;
57643;SDS011;43474;46.510;6.686;2024-01-15T02:49:53;0.20;;;0.20;;
57643;SDS011;43474;46.510;6.686;2024-01-15T02:52:19;0.55;;;0.55;;
57643;SDS011;43474;46.510;6.686;2024-01-15T02:54:45;2.95;;;0.45;;
57643;SDS011;43474;46.510;6.686;2024-01-15T02:57:12;0.82;;;0.30;;
57643;SDS011;43474;46.510;6.686;2024-01-15T02:59:38;1.25;;;0.50;;
57643;SDS011;43474;46.510;6.686;2024-01-15T03:02:05;0.17;;;0.17;;
57643;SDS011;43474;46.510;6.686;2024-01-15T03:04:31;0.85;;;0.63;;
57643;SDS011;43474;46.510;6.686;2024-01-15T03:06:57;0.10;;;0.10;;
57643;SDS011;43474;46.510;6.686;2024-01-15T03:09:23;0.40;;;0.40;;
57643;SDS011;43474;46.510;6.686;2024-01-15T03:11:48;0.40;;;0.20;;
57643;SDS011;43474;46.510;6.686;2024-01-15T03:14:14;0.43;;;0.28;;
57643;SDS011;43474;46.510;6.686;2024-01-15T03:16:40;0.45;;;0.40;;
57643;SDS011;43474;46.510;6.686;2024-01-15T03:19:06;7.38;;;0.88;;
57643;SDS011;43474;46.510;6.686;2024-01-15T03:21:31;0.20;;;0.20;;
57643;SDS011;43474;46.510;6.686;2024-01-15T03:23:59;0.10;;;0.10;;
57643;SDS011;43474;46.510;6.686;2024-01-15T03:26:24;0.13;;;0.13;;
57643;SDS011;43474;46.510;6.686;2024-01-15T03:28:53;0.10;;;0.10;;
57643;SDS011;43474;46.510;6.686;2024-01-15T03:31:18;0.22;;;0.22;;
57643;SDS011;43474;46.510;6.686;2024-01-15T03:33:44;0.90;;;0.52;;
57643;SDS011;43474;46.510;6.686;2024-01-15T03:36:10;0.75;;;0.20;;
57643;SDS011;43474;46.510;6.686;2024-01-15T03:38:39;0.47;;;0.28;;
57643;SDS011;43474;46.510;6.686;2024-01-15T03:41:06;0.15;;;0.13;;
57643;SDS011;43474;46.510;6.686;2024-01-15T03:43:32;0.30;;;0.15;;
57643;SDS011;43474;46.510;6.686;2024-01-15T03:45:58;0.22;;;0.22;;
57643;SDS011;43474;46.510;6.686;2024-01-15T03:48:24;0.22;;;0.22;;
57643;SDS011;43474;46.510;6.686;2024-01-15T03:50:49;0.00;;;0.00;;
57643;SDS011;43474;46.510;6.686;2024-01-15T03:53:16;2.65;;;0.47;;
57643;SDS011;43474;46.510;6.686;2024-01-15T03:55:41;0.40;;;0.40;;
57643;SDS011;43474;46.510;6.686;2024-01-15T03:58:08;3.60;;;0.70;;
57643;SDS011;43474;46.510;6.686;2024-01-15T04:00:33;1.75;;;0.40;;
57643;SDS011;43474;46.510;6.686;2024-01-15T04:02:59;0.57;;;0.22;;
57643;SDS011;43474;46.510;6.686;2024-01-15T04:05:25;0.55;;;0.20;;
57643;SDS011;43474;46.510;6.686;2024-01-15T04:07:52;0.88;;;0.40;;
57643;SDS011;43474;46.510;6.686;2024-01-15T04:10:17;0.70;;;0.50;;
57643;SDS011;43474;46.510;6.686;2024-01-15T04:12:43;0.20;;;0.20;;
57643;SDS011;43474;46.510;6.686;2024-01-15T04:15:11;1.02;;;0.65;;
57643;SDS011;43474;46.510;6.686;2024-01-15T04:17:38;0.15;;;0.15;;
57643;SDS011;43474;46.510;6.686;2024-01-15T04:20:04;0.55;;;0.55;;
57643;SDS011;43474;46.510;6.686;2024-01-15T04:22:30;0.40;;;0.40;;
57643;SDS011;43474;46.510;6.686;2024-01-15T04:24:56;0.60;;;0.45;;
57643;SDS011;43474;46.510;6.686;2024-01-15T04:27:22;1.00;;;0.60;;
57643;SDS011;43474;46.510;6.686;2024-01-15T04:29:47;1.80;;;0.50;;
57643;SDS011;43474;46.510;6.686;2024-01-15T04:32:13;1.48;;;0.50;;
57643;SDS011;43474;46.510;6.686;2024-01-15T04:34:39;0.25;;;0.25;;
57643;SDS011;43474;46.510;6.686;2024-01-15T04:37:04;0.08;;;0.08;;
57643;SDS011;43474;46.510;6.686;2024-01-15T04:39:30;1.10;;;0.30;;
57643;SDS011;43474;46.510;6.686;2024-01-15T04:41:56;0.30;;;0.15;;
57643;SDS011;43474;46.510;6.686;2024-01-15T04:44:22;0.45;;;0.20;;
57643;SDS011;43474;46.510;6.686;2024-01-15T04:46:48;0.13;;;0.13;;
57643;SDS011;43474;46.510;6.686;2024-01-15T04:49:13;0.30;;;0.20;;
57643;SDS011;43474;46.510;6.686;2024-01-15T04:51:39;0.25;;;0.20;;
57643;SDS011;43474;46.510;6.686;2024-01-15T04:54:05;0.38;;;0.30;;
57643;SDS011;43474;46.510;6.686;2024-01-15T04:56:30;1.38;;;0.77;;
57643;SDS011;43474;46.510;6.686;2024-01-15T04:58:56;0.77;;;0.40;;
57643;SDS011;43474;46.510;6.686;2024-01-15T05:01:22;1.23;;;0.32;;
57643;SDS011;43474;46.510;6.686;2024-01-15T05:03:48;1.25;;;0.98;;
57643;SDS011;43474;46.510;6.686;2024-01-15T05:06:15;0.50;;;0.40;;
57643;SDS011;43474;46.510;6.686;2024-01-15T05:08:40;0.45;;;0.45;;
57643;SDS011;43474;46.510;6.686;2024-01-15T05:11:06;0.95;;;0.50;;
57643;SDS011;43474;46.510;6.686;2024-01-15T05:13:32;0.52;;;0.32;;
57643;SDS011;43474;46.510;6.686;2024-01-15T05:15:58;0.43;;;0.43;;
57643;SDS011;43474;46.510;6.686;2024-01-15T05:18:24;0.38;;;0.25;;
57643;SDS011;43474;46.510;6.686;2024-01-15T05:20:50;4.32;;;0.73;;
57643;SDS011;43474;46.510;6.686;2024-01-15T05:23:17;0.30;;;0.30;;
57643;SDS011;43474;46.510;6.686;2024-01-15T05:25:43;0.40;;;0.40;;
57643;SDS011;43474;46.510;6.686;2024-01-15T05:28:09;0.43;;;0.30;;
57643;SDS011;43474;46.510;6.686;2024-01-15T05:30:35;0.35;;;0.35;;
57643;SDS011;43474;46.510;6.686;2024-01-15T05:33:00;0.50;;;0.45;;
57643;SDS011;43474;46.510;6.686;2024-01-15T05:35:26;2.50;;;0.63;;
57643;SDS011;43474;46.510;6.686;2024-01-15T05:37:52;1.10;;;0.77;;
57643;SDS011;43474;46.510;6.686;2024-01-15T05:40:18;0.63;;;0.30;;
57643;SDS011;43474;46.510;6.686;2024-01-15T05:42:43;1.40;;;0.90;;
57643;SDS011;43474;46.510;6.686;2024-01-15T05:45:10;1.63;;;0.70;;
57643;SDS011;43474;46.510;6.686;2024-01-15T05:47:36;0.20;;;0.20;;
57643;SDS011;43474;46.510;6.686;2024-01-15T05:50:02;0.10;;;0.10;;
57643;SDS011;43474;46.510;6.686;2024-01-15T05:52:27;0.63;;;0.30;;
57643;SDS011;43474;46.510;6.686;2024-01-15T05:54:53;0.85;;;0.85;;
57643;SDS011;43474;46.510;6.686;2024-01-15T05:57:19;1.80;;;0.90;;
57643;SDS011;43474;46.510;6.686;2024-01-15T05:59:44;1.50;;;0.90;;
57643;SDS011;43474;46.510;6.686;2024-01-15T06:02:10;0.77;;;0.50;;
57643;SDS011;43474;46.510;6.686;2024-01-15T06:04:36;0.82;;;0.20;;
57643;SDS011;43474;46.510;6.686;2024-01-15T06:07:02;1.27;;;1.00;;
57643;SDS011;43474;46.510;6.686;2024-01-15T06:09:28;2.33;;;1.08;;
57643;SDS011;43474;46.510;6.686;2024-01-15T06:11:54;1.73;;;1.02;;
57643;SDS011;43474;46.510;6.686;2024-01-15T06:14:20;1.45;;;0.32;;
57643;SDS011;43474;46.510;6.686;2024-01-15T06:16:46;0.65;;;0.65;;
57643;SDS011;43474;46.510;6.686;2024-01-15T06:19:12;0.90;;;0.85;;
57643;SDS011;43474;46.510;6.686;2024-01-15T06:21:38;4.13;;;0.73;;
57643;SDS011;43474;46.510;6.686;2024-01-15T06:24:03;1.38;;;0.73;;
57643;SDS011;43474;46.510;6.686;2024-01-15T06:26:29;0.82;;;0.57;;
57643;SDS011;43474;46.510;6.686;2024-01-15T06:28:55;0.55;;;0.55;;
57643;SDS011;43474;46.510;6.686;2024-01-15T06:31:21;1.75;;;1.13;;
57643;SDS011;43474;46.510;6.686;2024-01-15T06:33:47;5.10;;;0.98;;
57643;SDS011;43474;46.510;6.686;2024-01-15T06:36:13;1.00;;;0.82;;
57643;SDS011;43474;46.510;6.686;2024-01-15T06:38:43;1.38;;;0.95;;
57643;SDS011;43474;46.510;6.686;2024-01-15T06:41:09;1.90;;;1.38;;
57643;SDS011;43474;46.510;6.686;2024-01-15T06:43:35;0.85;;;0.65;;
57643;SDS011;43474;46.510;6.686;2024-01-15T06:46:01;3.95;;;1.02;;
57643;SDS011;43474;46.510;6.686;2024-01-15T06:48:27;1.02;;;0.50;;
57643;SDS011;43474;46.510;6.686;2024-01-15T06:50:52;3.28;;;1.10;;
57643;SDS011;43474;46.510;6.686;2024-01-15T06:53:18;1.73;;;1.20;;
57643;SDS011;43474;46.510;6.686;2024-01-15T06:55:44;2.17;;;0.70;;
57643;SDS011;43474;46.510;6.686;2024-01-15T06:58:10;4.95;;;1.30;;
57643;SDS011;43474;46.510;6.686;2024-01-15T07:00:36;1.45;;;1.15;;
57643;SDS011;43474;46.510;6.686;2024-01-15T07:03:02;0.65;;;0.65;;
57643;SDS011;43474;46.510;6.686;2024-01-15T07:05:28;2.13;;;1.63;;
57643;SDS011;43474;46.510;6.686;2024-01-15T07:07:55;1.65;;;1.05;;
57643;SDS011;43474;46.510;6.686;2024-01-15T07:10:21;0.60;;;0.55;;
57643;SDS011;43474;46.510;6.686;2024-01-15T07:12:47;1.02;;;0.73;;
57643;SDS011;43474;46.510;6.686;2024-01-15T07:15:12;1.65;;;0.80;;
57643;SDS011;43474;46.510;6.686;2024-01-15T07:17:38;2.15;;;1.05;;
57643;SDS011;43474;46.510;6.686;2024-01-15T07:20:07;1.95;;;0.80;;
57643;SDS011;43474;46.510;6.686;2024-01-15T07:22:35;1.50;;;1.23;;
57643;SDS011;43474;46.510;6.686;2024-01-15T07:25:01;1.58;;;0.82;;
57643;SDS011;43474;46.510;6.686;2024-01-15T07:27:27;2.72;;;0.98;;
57643;SDS011;43474;46.510;6.686;2024-01-15T07:29:53;2.92;;;1.20;;
57643;SDS011;43474;46.510;6.686;2024-01-15T07:32:18;3.03;;;0.88;;
57643;SDS011;43474;46.510;6.686;2024-01-15T07:34:45;1.45;;;1.08;;
57643;SDS011;43474;46.510;6.686;2024-01-15T07:37:11;0.90;;;0.88;;
57643;SDS011;43474;46.510;6.686;2024-01-15T07:39:37;4.57;;;1.10;;
57643;SDS011;43474;46.510;6.686;2024-01-15T07:42:03;1.55;;;1.10;;
57643;SDS011;43474;46.510;6.686;2024-01-15T07:44:29;2.58;;;1.20;;
57643;SDS011;43474;46.510;6.686;2024-01-15T07:46:55;1.80;;;1.58;;
57643;SDS011;43474;46.510;6.686;2024-01-15T07:49:20;1.67;;;0.98;;
57643;SDS011;43474;46.510;6.686;2024-01-15T07:51:46;3.05;;;0.88;;
57643;SDS011;43474;46.510;6.686;2024-01-15T07:54:12;0.95;;;0.90;;
57643;SDS011;43474;46.510;6.686;2024-01-15T07:56:57;2.72;;;1.38;;
57643;SDS011;43474;46.510;6.686;2024-01-15T07:59:26;1.42;;;1.33;;
57643;SDS011;43474;46.510;6.686;2024-01-15T08:01:52;1.63;;;1.15;;
57643;SDS011;43474;46.510;6.686;2024-01-15T08:04:19;1.30;;;0.98;;
57643;SDS011;43474;46.510;6.686;2024-01-15T08:06:47;2.97;;;1.65;;
57643;SDS011;43474;46.510;6.686;2024-01-15T08:09:13;2.42;;;1.05;;
57643;SDS011;43474;46.510;6.686;2024-01-15T08:11:40;1.85;;;1.48;;
57643;SDS011;43474;46.510;6.686;2024-01-15T08:14:08;4.82;;;1.50;;
57643;SDS011;43474;46.510;6.686;2024-01-15T08:16:36;0.70;;;0.70;;
57643;SDS011;43474;46.510;6.686;2024-01-15T08:19:04;1.52;;;0.90;;
57643;SDS011;43474;46.510;6.686;2024-01-15T08:21:32;1.70;;;1.10;;
57643;SDS011;43474;46.510;6.686;2024-01-15T08:24:00;1.48;;;1.20;;
57643;SDS011;43474;46.510;6.686;2024-01-15T08:26:29;2.13;;;1.30;;
57643;SDS011;43474;46.510;6.686;2024-01-15T08:28:54;1.30;;;0.85;;
57643;SDS011;43474;46.510;6.686;2024-01-15T08:31:21;1.58;;;1.20;;
57643;SDS011;43474;46.510;6.686;2024-01-15T08:33:46;5.60;;;1.30;;
57643;SDS011;43474;46.510;6.686;2024-01-15T08:36:12;4.15;;;1.40;;
57643;SDS011;43474;46.510;6.686;2024-01-15T08:38:39;7.88;;;1.00;;
57643;SDS011;43474;46.510;6.686;2024-01-15T08:41:06;2.05;;;1.67;;
57643;SDS011;43474;46.510;6.686;2024-01-15T08:43:34;2.00;;;1.15;;
57643;SDS011;43474;46.510;6.686;2024-01-15T08:46:00;1.63;;;1.48;;
57643;SDS011;43474;46.510;6.686;2024-01-15T08:48:26;1.58;;;1.48;;
57643;SDS011;43474;46.510;6.686;2024-01-15T08:50:53;4.53;;;1.15;;
57643;SDS011;43474;46.510;6.686;2024-01-15T08:53:20;1.60;;;1.50;;
57643;SDS011;43474;46.510;6.686;2024-01-15T08:55:47;5.35;;;1.38;;
57643;SDS011;43474;46.510;6.686;2024-01-15T08:58:13;3.65;;;1.23;;
57643;SDS011;43474;46.510;6.686;2024-01-15T09:00:39;3.90;;;1.80;;
57643;SDS011;43474;46.510;6.686;2024-01-15T09:03:05;4.88;;;2.17;;
57643;SDS011;43474;46.510;6.686;2024-01-15T09:05:32;3.15;;;1.98;;
57643;SDS011;43474;46.510;6.686;2024-01-15T09:07:57;2.03;;;1.50;;
57643;SDS011;43474;46.510;6.686;2024-01-15T09:10:23;2.65;;;1.73;;
57643;SDS011;43474;46.510;6.686;2024-01-15T09:12:49;3.22;;;1.70;;
57643;SDS011;43474;46.510;6.686;2024-01-15T09:15:15;2.10;;;1.50;;
57643;SDS011;43474;46.510;6.686;2024-01-15T09:17:41;2.17;;;1.92;;
57643;SDS011;43474;46.510;6.686;2024-01-15T09:20:08;2.72;;;1.90;;
57643;SDS011;43474;46.510;6.686;2024-01-15T09:22:35;2.97;;;1.40;;
57643;SDS011;43474;46.510;6.686;2024-01-15T09:25:04;3.88;;;1.70;;
57643;SDS011;43474;46.510;6.686;2024-01-15T09:27:31;3.25;;;1.50;;
57643;SDS011;43474;46.510;6.686;2024-01-15T09:29:59;1.58;;;1.38;;
57643;SDS011;43474;46.510;6.686;2024-01-15T09:32:24;5.00;;;1.13;;
57643;SDS011;43474;46.510;6.686;2024-01-15T09:34:50;3.45;;;1.50;;
57643;SDS011;43474;46.510;6.686;2024-01-15T09:37:16;2.67;;;1.30;;
57643;SDS011;43474;46.510;6.686;2024-01-15T09:39:44;3.30;;;1.38;;
57643;SDS011;43474;46.510;6.686;2024-01-15T09:42:09;2.50;;;1.10;;
57643;SDS011;43474;46.510;6.686;2024-01-15T09:44:36;1.95;;;1.40;;
57643;SDS011;43474;46.510;6.686;2024-01-15T09:47:03;3.45;;;1.52;;
57643;SDS011;43474;46.510;6.686;2024-01-15T09:49:30;1.33;;;1.05;;
57643;SDS011;43474;46.510;6.686;2024-01-15T09:51:57;1.80;;;1.38;;
57643;SDS011;43474;46.510;6.686;2024-01-15T09:54:24;2.72;;;1.13;;
57643;SDS011;43474;46.510;6.686;2024-01-15T09:56:50;0.75;;;0.75;;
57643;SDS011;43474;46.510;6.686;2024-01-15T09:59:16;1.85;;;1.17;;
57643;SDS011;43474;46.510;6.686;2024-01-15T10:01:44;2.28;;;1.33;;
57643;SDS011;43474;46.510;6.686;2024-01-15T10:04:11;4.43;;;1.48;;
57643;SDS011;43474;46.510;6.686;2024-01-15T10:06:49;2.42;;;1.58;;
57643;SDS011;43474;46.510;6.686;2024-01-15T10:09:17;0.77;;;0.77;;
57643;SDS011;43474;46.510;6.686;2024-01-15T10:11:43;2.08;;;1.00;;
57643;SDS011;43474;46.510;6.686;2024-01-15T10:14:10;3.28;;;1.40;;
57643;SDS011;43474;46.510;6.686;2024-01-15T10:16:41;1.17;;;0.82;;
57643;SDS011;43474;46.510;6.686;2024-01-15T10:19:08;2.47;;;1.30;;
57643;SDS011;43474;46.510;6.686;2024-01-15T10:21:34;1.00;;;0.93;;
57643;SDS011;43474;46.510;6.686;2024-01-15T10:24:02;2.05;;;1.17;;
57643;SDS011;43474;46.510;6.686;2024-01-15T10:26:29;1.45;;;1.10;;
57643;SDS011;43474;46.510;6.686;2024-01-15T10:28:58;1.27;;;0.52;;
57643;SDS011;43474;46.510;6.686;2024-01-15T10:31:25;3.03;;;1.65;;
57643;SDS011;43474;46.510;6.686;2024-01-15T10:33:52;1.25;;;1.15;;
57643;SDS011;43474;46.510;6.686;2024-01-15T10:36:17;4.47;;;2.13;;
57643;SDS011;43474;46.510;6.686;2024-01-15T10:38:44;1.73;;;1.63;;
57643;SDS011;43474;46.510;6.686;2024-01-15T10:41:10;2.65;;;1.42;;
57643;SDS011;43474;46.510;6.686;2024-01-15T10:43:36;2.08;;;1.30;;
57643;SDS011;43474;46.510;6.686;2024-01-15T10:46:02;2.58;;;1.42;;
57643;SDS011;43474;46.510;6.686;2024-01-15T10:48:29;1.85;;;1.48;;
57643;SDS011;43474;46.510;6.686;2024-01-15T10:50:57;2.17;;;1.20;;
57643;SDS011;43474;46.510;6.686;2024-01-15T10:53:24;1.27;;;1.15;;
57643;SDS011;43474;46.510;6.686;2024-01-15T10:55:50;5.53;;;2.22;;
57643;SDS011;43474;46.510;6.686;2024-01-15T10:58:20;3.13;;;1.63;;
57643;SDS011;43474;46.510;6.686;2024-01-15T11:00:48;2.25;;;1.77;;
57643;SDS011;43474;46.510;6.686;2024-01-15T11:03:15;2.50;;;1.58;;
57643;SDS011;43474;46.510;6.686;2024-01-15T11:05:42;1.60;;;1.10;;
57643;SDS011;43474;46.510;6.686;2024-01-15T11:08:09;3.95;;;0.88;;
57643;SDS011;43474;46.510;6.686;2024-01-15T11:10:51;1.58;;;1.00;;
57643;SDS011;43474;46.510;6.686;2024-01-15T11:13:21;1.25;;;1.15;;
57643;SDS011;43474;46.510;6.686;2024-01-15T11:18:35;2.50;;;1.88;;
57643;SDS011;43474;46.510;6.686;2024-01-15T11:23:42;1.20;;;1.10;;
57643;SDS011;43474;46.510;6.686;2024-01-15T11:31:59;1.58;;;1.27;;
57643;SDS011;43474;46.510;6.686;2024-01-15T11:37:27;2.15;;;1.25;;
57643;SDS011;43474;46.510;6.686;2024-01-15T11:40:14;1.77;;;1.00;;
57643;SDS011;43474;46.510;6.686;2024-01-15T11:42:44;3.53;;;1.45;;
57643;SDS011;43474;46.510;6.686;2024-01-15T11:45:10;2.08;;;0.98;;
57643;SDS011;43474;46.510;6.686;2024-01-15T11:50:32;1.63;;;0.57;;
57643;SDS011;43474;46.510;6.686;2024-01-15T11:53:02;1.95;;;1.13;;
57643;SDS011;43474;46.510;6.686;2024-01-15T11:55:30;2.42;;;1.08;;
57643;SDS011;43474;46.510;6.686;2024-01-15T11:58:00;0.90;;;0.88;;
57643;SDS011;43474;46.510;6.686;2024-01-15T12:00:27;3.83;;;1.45;;
57643;SDS011;43474;46.510;6.686;2024-01-15T12:02:53;2.83;;;1.23;;
57643;SDS011;43474;46.510;6.686;2024-01-15T12:05:20;2.83;;;0.95;;
57643;SDS011;43474;46.510;6.686;2024-01-15T12:07:46;1.35;;;1.10;;
57643;SDS011;43474;46.510;6.686;2024-01-15T12:10:14;1.20;;;1.10;;
57643;SDS011;43474;46.510;6.686;2024-01-15T12:15:29;2.95;;;1.67;;
57643;SDS011;43474;46.510;6.686;2024-01-15T12:17:56;1.65;;;0.82;;
57643;SDS011;43474;46.510;6.686;2024-01-15T12:20:29;0.95;;;0.50;;
57643;SDS011;43474;46.510;6.686;2024-01-15T12:22:59;10.73;;;1.27;;
57643;SDS011;43474;46.510;6.686;2024-01-15T12:25:25;1.02;;;0.88;;
57643;SDS011;43474;46.510;6.686;2024-01-15T12:27:53;4.88;;;1.20;;
57643;SDS011;43474;46.510;6.686;2024-01-15T12:30:19;1.02;;;0.95;;
57643;SDS011;43474;46.510;6.686;2024-01-15T12:32:45;1.52;;;1.08;;
57643;SDS011;43474;46.510;6.686;2024-01-15T12:35:14;1.30;;;1.20;;
57643;SDS011;43474;46.510;6.686;2024-01-15T12:37:40;1.23;;;0.95;;
57643;SDS011;43474;46.510;6.686;2024-01-15T12:40:08;5.05;;;1.55;;
57643;SDS011;43474;46.510;6.686;2024-01-15T12:42:41;1.55;;;1.13;;
57643;SDS011;43474;46.510;6.686;2024-01-15T12:45:09;0.75;;;0.75;;
57643;SDS011;43474;46.510;6.686;2024-01-15T12:47:37;1.30;;;0.85;;
57643;SDS011;43474;46.510;6.686;2024-01-15T12:50:06;2.15;;;1.52;;
57643;SDS011;43474;46.510;6.686;2024-01-15T12:52:33;2.65;;;1.30;;
57643;SDS011;43474;46.510;6.686;2024-01-15T12:54:59;2.42;;;1.02;;
57643;SDS011;43474;46.510;6.686;2024-01-15T12:57:24;3.70;;;1.45;;
57643;SDS011;43474;46.510;6.686;2024-01-15T12:59:50;1.92;;;1.30;;
57643;SDS011;43474;46.510;6.686;2024-01-15T13:02:16;1.45;;;0.85;;
57643;SDS011;43474;46.510;6.686;2024-01-15T13:04:42;2.83;;;0.98;;
57643;SDS011;43474;46.510;6.686;2024-01-15T13:07:08;1.73;;;1.45;;
57643;SDS011;43474;46.510;6.686;2024-01-15T13:09:34;1.20;;;0.55;;
57643;SDS011;43474;46.510;6.686;2024-01-15T13:12:04;5.65;;;0.90;;
57643;SDS011;43474;46.510;6.686;2024-01-15T13:14:31;1.83;;;1.27;;
57643;SDS011;43474;46.510;6.686;2024-01-15T13:16:58;0.95;;;0.80;;
57643;SDS011;43474;46.510;6.686;2024-01-15T13:19:24;1.02;;;1.00;;
57643;SDS011;43474;46.510;6.686;2024-01-15T13:21:50;6.43;;;1.33;;
57643;SDS011;43474;46.510;6.686;2024-01-15T13:24:17;3.95;;;1.13;;
57643;SDS011;43474;46.510;6.686;2024-01-15T13:26:43;2.10;;;1.35;;
57643;SDS011;43474;46.510;6.686;2024-01-15T13:29:08;2.22;;;1.17;;
57643;SDS011;43474;46.510;6.686;2024-01-15T13:31:34;1.63;;;0.90;;
57643;SDS011;43474;46.510;6.686;2024-01-15T13:34:00;1.48;;;1.02;;
57643;SDS011;43474;46.510;6.686;2024-01-15T13:36:26;3.55;;;0.95;;
57643;SDS011;43474;46.510;6.686;2024-01-15T13:38:52;0.52;;;0.52;;
57643;SDS011;43474;46.510;6.686;2024-01-15T13:41:22;0.65;;;0.60;;
57643;SDS011;43474;46.510;6.686;2024-01-15T13:43:52;1.77;;;0.82;;
57643;SDS011;43474;46.510;6.686;2024-01-15T13:46:20;2.40;;;0.80;;
57643;SDS011;43474;46.510;6.686;2024-01-15T13:48:54;2.13;;;1.10;;
57643;SDS011;43474;46.510;6.686;2024-01-15T13:51:23;2.30;;;0.82;;
57643;SDS011;43474;46.510;6.686;2024-01-15T13:53:49;1.70;;;0.60;;
57643;SDS011;43474;46.510;6.686;2024-01-15T13:56:16;2.17;;;1.60;;
57643;SDS011;43474;46.510;6.686;2024-01-15T13:58:42;2.92;;;1.13;;
57643;SDS011;43474;46.510;6.686;2024-01-15T14:01:08;1.00;;;0.90;;
57643;SDS011;43474;46.510;6.686;2024-01-15T14:03:35;1.08;;;0.47;;
57643;SDS011;43474;46.510;6.686;2024-01-15T14:06:01;0.35;;;0.32;;
57643;SDS011;43474;46.510;6.686;2024-01-15T14:08:37;1.20;;;1.10;;
57643;SDS011;43474;46.510;6.686;2024-01-15T14:11:03;1.05;;;0.50;;
57643;SDS011;43474;46.510;6.686;2024-01-15T14:13:31;1.13;;;0.70;;
57643;SDS011;43474;46.510;6.686;2024-01-15T14:15:58;1.65;;;0.80;;
57643;SDS011;43474;46.510;6.686;2024-01-15T14:18:23;1.10;;;0.70;;
57643;SDS011;43474;46.510;6.686;2024-01-15T14:20:49;1.20;;;0.60;;
57643;SDS011;43474;46.510;6.686;2024-01-15T14:23:15;1.35;;;0.65;;
57643;SDS011;43474;46.510;6.686;2024-01-15T14:25:41;1.27;;;0.57;;
57643;SDS011;43474;46.510;6.686;2024-01-15T14:28:06;1.13;;;0.80;;
57643;SDS011;43474;46.510;6.686;2024-01-15T14:30:32;1.02;;;0.63;;
57643;SDS011;43474;46.510;6.686;2024-01-15T14:32:59;0.95;;;0.70;;
57643;SDS011;43474;46.510;6.686;2024-01-15T14:35:25;1.38;;;0.70;;
57643;SDS011;43474;46.510;6.686;2024-01-15T14:37:51;0.80;;;0.77;;
57643;SDS011;43474;46.510;6.686;2024-01-15T14:40:17;0.85;;;0.70;;
57643;SDS011;43474;46.510;6.686;2024-01-15T14:42:44;1.45;;;0.68;;
57643;SDS011;43474;46.510;6.686;2024-01-15T14:45:11;0.85;;;0.60;;
57643;SDS011;43474;46.510;6.686;2024-01-15T14:47:37;2.03;;;1.13;;
57643;SDS011;43474;46.510;6.686;2024-01-15T14:50:07;1.67;;;1.02;;
57643;SDS011;43474;46.510;6.686;2024-01-15T14:52:35;1.35;;;0.75;;
57643;SDS011;43474;46.510;6.686;2024-01-15T14:55:02;1.52;;;0.95;;
57643;SDS011;43474;46.510;6.686;2024-01-15T14:57:30;1.15;;;0.70;;
57643;SDS011;43474;46.510;6.686;2024-01-15T14:59:56;1.38;;;1.00;;
57643;SDS011;43474;46.510;6.686;2024-01-15T15:02:23;1.80;;;0.80;;
57643;SDS011;43474;46.510;6.686;2024-01-15T15:04:50;0.75;;;0.50;;